Time;durP1;ratioP1;P1;durP2;ratioP2;P2;SDS_P1;SDS_P2;PMS_P1;PMS_P2;Temp;Humidity;BMP_temperature;BMP_pressure;BME280_temperature;BME280_humidity;BME280_pressure;Samples;Min_cycle;Max_cycle;Signal;HPM_P1;HPM_P2
2021/03/09 00:02:15;;;;;;;19.52;16.73;;;8.20;99.90;;;;;;4957217;28;20038;-79
2021/03/09 00:04:41;;;;;;;24.67;17.15;;;8.20;99.90;;;;;;4957193;28;20039;-79
2021/03/09 00:07:07;;;;;;;23.75;17.88;;;8.20;99.90;;;;;;4956633;28;20119;-79
2021/03/09 00:09:33;;;;;;;25.65;19.38;;;8.20;99.90;;;;;;4961447;28;20023;-79
2021/03/09 00:11:59;;;;;;;19.88;16.65;;;8.10;99.90;;;;;;4964849;28;20046;-80
2021/03/09 00:14:25;;;;;;;26.45;18.75;;;8.10;99.90;;;;;;4967936;28;20026;-80
2021/03/09 00:16:51;;;;;;;28.15;18.60;;;8.10;99.90;;;;;;4963574;28;20023;-79
2021/03/09 00:19:17;;;;;;;22.45;16.50;;;8.10;99.90;;;;;;4955167;28;20023;-79
2021/03/09 00:21:43;;;;;;;21.65;18.85;;;8.00;99.90;;;;;;4964945;28;20023;-79
2021/03/09 00:24:09;;;;;;;24.02;18.20;;;8.10;99.90;;;;;;4968947;28;20054;-79
2021/03/09 00:26:35;;;;;;;22.80;18.65;;;8.10;99.90;;;;;;4970352;28;20035;-79
2021/03/09 00:29:00;;;;;;;19.92;16.95;;;8.00;99.90;;;;;;4958232;28;20151;-80
2021/03/09 00:31:26;;;;;;;29.83;19.10;;;8.00;99.90;;;;;;4956993;28;20029;-79
2021/03/09 00:33:52;;;;;;;21.88;18.88;;;7.90;99.90;;;;;;4964029;28;20027;-79
2021/03/09 00:36:18;;;;;;;24.08;18.52;;;7.80;99.90;;;;;;4958309;28;20023;-80
2021/03/09 00:38:44;;;;;;;25.65;18.20;;;7.80;99.90;;;;;;4957598;28;20069;-78
2021/03/09 00:41:10;;;;;;;29.08;16.85;;;7.90;99.90;;;;;;4960936;28;20481;-78
2021/03/09 00:43:36;;;;;;;23.92;17.10;;;7.90;99.90;;;;;;4961948;28;20405;-78
2021/03/09 00:46:02;;;;;;;27.35;17.55;;;7.90;99.90;;;;;;4976017;28;20121;-79
2021/03/09 00:48:41;;;;;;;20.05;16.17;;;7.90;99.90;;;;;;4961313;28;20139;-80
2021/03/09 00:51:07;;;;;;;20.80;18.08;;;7.90;99.90;;;;;;4971490;28;20038;-81
2021/03/09 00:53:34;;;;;;;21.65;16.98;;;7.80;99.90;;;;;;4987479;28;20026;-79
2021/03/09 00:56:00;;;;;;;20.23;16.60;;;7.90;99.90;;;;;;4986009;28;20027;-79
2021/03/09 00:58:26;;;;;;;24.00;17.33;;;7.80;99.90;;;;;;4957035;28;20027;-80
2021/03/09 01:00:52;;;;;;;18.95;16.30;;;7.80;99.90;;;;;;4946857;28;20255;-81
2021/03/09 01:03:18;;;;;;;26.75;17.00;;;7.80;99.90;;;;;;4962960;28;20031;-78
2021/03/09 01:05:44;;;;;;;23.40;16.15;;;7.80;99.90;;;;;;4961716;28;20035;-79
2021/03/09 01:08:10;;;;;;;25.40;15.63;;;7.80;99.90;;;;;;4956910;28;20027;-79
2021/03/09 01:10:37;;;;;;;23.00;15.52;;;7.80;99.90;;;;;;4956622;28;20554;-80
2021/03/09 01:13:03;;;;;;;16.48;14.00;;;7.80;99.90;;;;;;4969976;28;20035;-79
2021/03/09 01:15:29;;;;;;;20.50;15.13;;;7.80;99.90;;;;;;4977553;28;20026;-79
2021/03/09 01:17:55;;;;;;;16.98;13.93;;;7.80;99.90;;;;;;4964463;28;20085;-78
2021/03/09 01:20:22;;;;;;;27.02;15.00;;;7.80;99.90;;;;;;4966834;28;20056;-80
2021/03/09 01:22:48;;;;;;;22.98;14.02;;;7.70;99.90;;;;;;4967887;28;20036;-79
2021/03/09 01:25:14;;;;;;;20.50;13.38;;;7.80;99.90;;;;;;4965467;28;20026;-79
2021/03/09 01:27:40;;;;;;;16.60;13.70;;;7.70;99.90;;;;;;4962181;28;20031;-78
2021/03/09 01:30:08;;;;;;;15.85;13.90;;;7.70;99.90;;;;;;4970128;28;20058;-78
2021/03/09 01:32:34;;;;;;;19.83;13.05;;;7.80;99.90;;;;;;4962726;28;20023;-79
2021/03/09 01:35:00;;;;;;;15.68;12.48;;;7.80;99.90;;;;;;4966049;28;20026;-79
2021/03/09 01:37:26;;;;;;;11.98;9.40;;;7.70;99.90;;;;;;4966641;28;20020;-79
2021/03/09 01:39:52;;;;;;;15.70;10.68;;;7.70;99.90;;;;;;4968285;28;20046;-79
2021/03/09 01:42:18;;;;;;;18.40;11.70;;;7.70;99.90;;;;;;4973160;28;20026;-79
2021/03/09 01:44:44;;;;;;;12.27;10.40;;;7.60;99.90;;;;;;4963393;28;20031;-79
2021/03/09 01:47:11;;;;;;;13.70;10.18;;;7.70;99.90;;;;;;4965831;28;20486;-81
2021/03/09 01:49:55;;;;;;;16.40;10.93;;;7.70;99.90;;;;;;4961050;28;20032;-79
2021/03/09 01:52:21;;;;;;;16.02;9.32;;;7.70;99.90;;;;;;4957620;28;20023;-79
2021/03/09 01:54:47;;;;;;;14.70;11.05;;;7.80;99.90;;;;;;4957505;28;20055;-79
2021/03/09 01:57:13;;;;;;;13.15;9.43;;;7.70;99.90;;;;;;4967523;28;20049;-79
2021/03/09 01:59:42;;;;;;;14.85;9.95;;;7.70;99.90;;;;;;4962149;28;20034;-78
2021/03/09 02:02:08;;;;;;;12.55;9.63;;;7.70;99.90;;;;;;4959986;28;20020;-79
2021/03/09 02:04:35;;;;;;;19.30;11.68;;;7.70;99.90;;;;;;4959237;28;20513;-78
2021/03/09 02:07:01;;;;;;;18.20;9.82;;;7.70;99.90;;;;;;4966343;28;20035;-79
2021/03/09 02:09:27;;;;;;;12.15;10.88;;;7.70;99.90;;;;;;4952624;28;20031;-78
2021/03/09 02:11:53;;;;;;;13.15;10.07;;;7.70;99.90;;;;;;4961775;28;20062;-78
2021/03/09 02:14:44;;;;;;;12.82;11.10;;;7.60;99.90;;;;;;4966673;28;20763;-78
2021/03/09 02:17:36;;;;;;;12.43;10.40;;;7.60;99.90;;;;;;4953891;28;20051;-78
2021/03/09 02:20:35;;;;;;;19.15;11.05;;;7.60;99.90;;;;;;4957876;28;20070;-81
2021/03/09 02:23:20;;;;;;;15.75;11.10;;;7.50;99.90;;;;;;4964782;28;20086;-78
2021/03/09 02:26:27;;;;;;;15.45;10.80;;;7.50;99.90;;;;;;4958376;28;20576;-78
2021/03/09 02:29:35;;;;;;;14.13;10.50;;;7.50;99.90;;;;;;4955260;28;20035;-79
2021/03/09 02:32:04;;;;;;;13.30;10.65;;;7.50;99.90;;;;;;4959065;28;20027;-78
2021/03/09 02:34:40;;;;;;;15.85;10.95;;;7.40;99.90;;;;;;4961449;28;20171;-79
2021/03/09 02:37:10;;;;;;;16.45;10.00;;;7.40;99.90;;;;;;4966779;28;20029;-79
2021/03/09 02:39:41;;;;;;;18.48;11.07;;;7.40;99.90;;;;;;4964648;28;20028;-79
2021/03/09 02:42:08;;;;;;;13.65;11.48;;;7.40;99.90;;;;;;4964100;28;20098;-78
2021/03/09 02:44:36;;;;;;;13.88;8.43;;;7.40;99.90;;;;;;4964261;28;20031;-78
2021/03/09 02:47:04;;;;;;;16.02;11.77;;;7.40;99.90;;;;;;4966234;28;20060;-78
2021/03/09 02:49:33;;;;;;;15.90;11.43;;;7.40;99.90;;;;;;4970514;28;20460;-78
2021/03/09 02:52:01;;;;;;;12.20;10.90;;;7.30;99.90;;;;;;4986299;28;20036;-79
2021/03/09 02:54:27;;;;;;;13.77;11.02;;;7.30;99.90;;;;;;4967172;28;20028;-79
2021/03/09 02:56:53;;;;;;;12.57;10.10;;;7.30;99.90;;;;;;4958968;28;20037;-79
2021/03/09 02:59:21;;;;;;;15.80;11.55;;;7.30;99.90;;;;;;4969814;28;20027;-79
2021/03/09 03:01:49;;;;;;;16.58;10.82;;;7.30;99.90;;;;;;4966528;28;20034;-79
2021/03/09 03:04:20;;;;;;;15.60;11.05;;;7.30;99.90;;;;;;4970047;28;20019;-79
2021/03/09 03:06:47;;;;;;;12.80;10.73;;;7.30;99.90;;;;;;4957261;28;20039;-79
2021/03/09 03:09:17;;;;;;;17.20;11.55;;;7.20;99.90;;;;;;4956243;28;20035;-79
2021/03/09 03:11:45;;;;;;;14.40;11.05;;;7.20;99.90;;;;;;4959031;28;20394;-79
2021/03/09 03:14:12;;;;;;;13.60;11.45;;;7.20;99.90;;;;;;4955066;28;20027;-79
2021/03/09 03:16:39;;;;;;;12.55;9.85;;;7.20;99.90;;;;;;4960744;28;20095;-78
2021/03/09 03:19:09;;;;;;;11.93;9.05;;;7.20;99.90;;;;;;4965091;28;20027;-80
2021/03/09 03:21:40;;;;;;;15.65;11.40;;;7.10;99.90;;;;;;4966337;28;20031;-79
2021/03/09 03:24:08;;;;;;;14.63;11.57;;;7.10;99.90;;;;;;4960504;28;20031;-78
2021/03/09 03:26:38;;;;;;;16.10;10.95;;;7.10;99.90;;;;;;4959613;28;20027;-78
2021/03/09 03:29:07;;;;;;;13.82;11.68;;;7.10;99.90;;;;;;4971718;28;20034;-78
2021/03/09 03:31:34;;;;;;;18.20;11.02;;;7.10;99.90;;;;;;4957355;28;20126;-78
2021/03/09 03:34:00;;;;;;;12.80;10.07;;;7.00;99.90;;;;;;4944506;28;20541;-79
2021/03/09 03:36:26;;;;;;;14.50;10.90;;;7.00;99.90;;;;;;4960294;28;20085;-78
2021/03/09 03:38:55;;;;;;;11.70;9.73;;;7.00;99.90;;;;;;4964702;28;20094;-78
2021/03/09 03:41:21;;;;;;;15.93;10.05;;;7.00;99.90;;;;;;4949741;28;20035;-78
2021/03/09 03:43:47;;;;;;;11.95;10.35;;;7.00;99.90;;;;;;4962086;28;20035;-78
2021/03/09 03:46:13;;;;;;;15.77;10.82;;;7.00;99.90;;;;;;4965595;28;20081;-79
2021/03/09 03:48:39;;;;;;;15.43;9.20;;;7.00;99.90;;;;;;4965788;28;20117;-79
2021/03/09 03:51:12;;;;;;;12.75;9.88;;;7.00;99.90;;;;;;4965513;28;20026;-78
2021/03/09 03:54:06;;;;;;;14.98;10.52;;;7.00;99.90;;;;;;4958216;28;20042;-79
2021/03/09 03:56:50;;;;;;;11.82;9.82;;;6.90;99.90;;;;;;4950758;28;20069;-78
2021/03/09 03:59:28;;;;;;;18.45;9.23;;;6.90;99.90;;;;;;4961860;28;20030;-78
2021/03/09 04:01:55;;;;;;;17.25;9.23;;;6.90;99.90;;;;;;4955747;28;20047;-78
2021/03/09 04:04:25;;;;;;;9.27;7.93;;;6.90;99.90;;;;;;4952653;29;20486;-80
2021/03/09 04:06:53;;;;;;;14.77;13.02;;;6.90;99.90;;;;;;4956106;28;20051;-79
2021/03/09 04:09:21;;;;;;;16.52;10.85;;;6.90;99.90;;;;;;4969758;28;20477;-79
2021/03/09 04:11:47;;;;;;;17.63;11.93;;;6.90;99.90;;;;;;4968715;28;20414;-79
2021/03/09 04:14:16;;;;;;;12.98;11.15;;;7.00;99.90;;;;;;4949044;28;20032;-79
2021/03/09 04:16:45;;;;;;;12.65;9.80;;;7.00;99.90;;;;;;4959015;28;20039;-79
2021/03/09 04:19:13;;;;;;;15.02;12.23;;;7.00;99.90;;;;;;4960592;28;20617;-79
2021/03/09 04:21:42;;;;;;;24.85;11.85;;;6.90;99.90;;;;;;4956640;28;20020;-79
2021/03/09 04:24:11;;;;;;;12.85;11.10;;;6.90;99.90;;;;;;4972574;28;20035;-78
2021/03/09 04:26:39;;;;;;;14.48;11.98;;;7.00;99.90;;;;;;4960791;28;20024;-78
2021/03/09 04:29:08;;;;;;;16.88;11.95;;;6.90;99.90;;;;;;4981164;28;20027;-79
2021/03/09 04:31:34;;;;;;;13.90;10.25;;;7.00;99.90;;;;;;4972066;28;20085;-78
2021/03/09 04:34:01;;;;;;;16.02;12.98;;;6.90;99.90;;;;;;4965827;28;20027;-78
2021/03/09 04:36:29;;;;;;;14.18;11.23;;;6.90;99.90;;;;;;4968316;28;20031;-80
2021/03/09 04:38:55;;;;;;;15.55;12.98;;;6.90;99.90;;;;;;4960988;28;20090;-78
2021/03/09 04:41:21;;;;;;;17.10;11.75;;;7.00;99.90;;;;;;4958171;28;20644;-78
2021/03/09 04:44:06;;;;;;;14.18;12.05;;;6.90;99.90;;;;;;4955852;28;20031;-80
2021/03/09 04:46:32;;;;;;;21.90;12.38;;;6.90;99.90;;;;;;4944178;28;20032;-79
2021/03/09 04:48:58;;;;;;;14.05;10.98;;;6.90;99.90;;;;;;4962997;28;20439;-79
2021/03/09 04:51:25;;;;;;;14.63;12.52;;;6.90;99.90;;;;;;4967948;28;20082;-79
2021/03/09 04:53:51;;;;;;;14.98;12.32;;;6.90;99.90;;;;;;4964167;28;20034;-79
2021/03/09 04:56:17;;;;;;;18.90;14.75;;;6.80;99.90;;;;;;4952903;28;20026;-78
2021/03/09 04:58:43;;;;;;;14.45;11.55;;;6.80;99.90;;;;;;4968107;28;20374;-78
2021/03/09 05:01:09;;;;;;;14.35;12.23;;;6.80;99.90;;;;;;4965026;28;20033;-78
2021/03/09 05:03:36;;;;;;;12.63;9.88;;;6.80;99.90;;;;;;4956148;28;20454;-78
2021/03/09 05:06:02;;;;;;;28.15;12.45;;;6.70;99.90;;;;;;4946743;28;20028;-78
2021/03/09 05:08:29;;;;;;;18.15;11.70;;;6.70;99.90;;;;;;4964354;28;20019;-80
2021/03/09 05:10:55;;;;;;;12.90;10.93;;;6.60;99.90;;;;;;4959688;28;20036;-78
2021/03/09 05:13:21;;;;;;;19.08;12.57;;;6.60;99.90;;;;;;4972882;28;20019;-79
2021/03/09 05:15:47;;;;;;;20.80;14.07;;;6.60;99.90;;;;;;4956707;29;20047;-78
2021/03/09 05:18:14;;;;;;;15.32;11.65;;;6.60;99.90;;;;;;4954024;28;20016;-78
2021/03/09 05:20:42;;;;;;;17.08;13.15;;;6.50;99.90;;;;;;4966927;28;20115;-78
2021/03/09 05:23:09;;;;;;;16.00;13.10;;;6.50;99.90;;;;;;4966996;28;20034;-80
2021/03/09 05:25:35;;;;;;;17.92;13.02;;;6.50;99.90;;;;;;4970884;28;20023;-78
2021/03/09 05:28:01;;;;;;;15.82;13.85;;;6.40;99.90;;;;;;4961804;28;20034;-78
2021/03/09 05:30:27;;;;;;;25.00;12.35;;;6.40;99.90;;;;;;4958256;28;20015;-79
2021/03/09 05:32:53;;;;;;;17.83;12.43;;;6.40;99.90;;;;;;4972696;28;20031;-79
2021/03/09 05:35:19;;;;;;;24.17;13.80;;;6.40;99.90;;;;;;4964235;28;20022;-80
2021/03/09 05:37:46;;;;;;;16.70;13.52;;;6.40;99.90;;;;;;4968374;28;20080;-80
2021/03/09 05:40:14;;;;;;;16.55;12.25;;;6.40;99.90;;;;;;4964890;28;20026;-80
2021/03/09 05:42:40;;;;;;;16.52;12.88;;;6.40;99.90;;;;;;4975775;28;20049;-80
2021/03/09 05:45:07;;;;;;;18.52;11.98;;;6.40;99.90;;;;;;4967516;28;20032;-80
2021/03/09 05:47:36;;;;;;;20.95;12.68;;;6.40;99.90;;;;;;4957280;28;20030;-79
2021/03/09 05:50:04;;;;;;;21.10;12.57;;;6.30;99.90;;;;;;4966516;28;20030;-80
2021/03/09 05:52:32;;;;;;;12.32;10.80;;;6.30;99.90;;;;;;4942587;28;20047;-79
2021/03/09 05:54:58;;;;;;;17.65;11.43;;;6.20;99.90;;;;;;4962702;28;20027;-78
2021/03/09 05:57:24;;;;;;;20.90;13.57;;;6.20;99.90;;;;;;4945804;28;20442;-79
2021/03/09 05:59:50;;;;;;;21.27;13.63;;;6.20;99.90;;;;;;4968538;28;20035;-79
2021/03/09 06:02:16;;;;;;;17.02;12.35;;;6.20;99.90;;;;;;4965018;28;20545;-78
2021/03/09 06:04:42;;;;;;;13.13;9.38;;;6.20;99.90;;;;;;4961873;28;20067;-79
2021/03/09 06:07:08;;;;;;;16.20;11.45;;;6.20;99.90;;;;;;4962309;28;20564;-80
2021/03/09 06:09:33;;;;;;;17.98;14.93;;;6.20;99.90;;;;;;4969365;28;20081;-79
2021/03/09 06:12:07;;;;;;;15.30;13.40;;;6.10;99.90;;;;;;4958024;28;20502;-79
2021/03/09 06:14:36;;;;;;;24.58;13.48;;;6.20;99.90;;;;;;4965235;28;20118;-78
2021/03/09 06:17:03;;;;;;;15.13;11.95;;;6.20;99.90;;;;;;4968799;28;20078;-79
2021/03/09 06:19:46;;;;;;;19.02;13.85;;;6.30;99.90;;;;;;4968872;28;20034;-78
2021/03/09 06:22:13;;;;;;;16.70;12.52;;;6.30;99.90;;;;;;4959756;28;20085;-80
2021/03/09 06:24:40;;;;;;;23.48;13.98;;;6.30;99.90;;;;;;4954824;28;20130;-79
2021/03/09 06:27:26;;;;;;;22.70;14.27;;;6.30;99.90;;;;;;4966885;28;20030;-79
2021/03/09 06:29:56;;;;;;;23.63;13.80;;;6.30;99.90;;;;;;4962637;28;20039;-80
2021/03/09 06:32:24;;;;;;;16.25;12.10;;;6.40;99.90;;;;;;4951309;28;20020;-78
2021/03/09 06:34:51;;;;;;;20.63;14.05;;;6.50;99.90;;;;;;4978832;28;20036;-79
2021/03/09 06:37:25;;;;;;;15.45;13.10;;;6.50;99.90;;;;;;4966980;28;20031;-79
2021/03/09 06:39:57;;;;;;;17.80;11.60;;;6.50;99.90;;;;;;4962509;28;20041;-80
2021/03/09 06:42:34;;;;;;;18.48;15.02;;;6.50;99.90;;;;;;4972748;28;20158;-79
2021/03/09 06:45:12;;;;;;;17.13;13.88;;;6.50;99.90;;;;;;4953720;28;20035;-78
2021/03/09 06:47:39;;;;;;;17.38;13.23;;;6.60;99.90;;;;;;4958931;28;20051;-78
2021/03/09 06:50:09;;;;;;;20.08;14.52;;;6.60;99.90;;;;;;4969369;28;20069;-80
2021/03/09 06:52:35;;;;;;;16.73;12.82;;;6.60;99.90;;;;;;4962183;28;20043;-78
2021/03/09 06:55:02;;;;;;;23.17;14.68;;;6.60;99.90;;;;;;4957733;28;20023;-78
2021/03/09 06:57:28;;;;;;;18.45;13.15;;;6.60;99.90;;;;;;4969941;28;20024;-79
2021/03/09 06:59:55;;;;;;;16.48;13.20;;;6.70;99.90;;;;;;4961773;28;20046;-78
2021/03/09 07:02:23;;;;;;;15.57;12.80;;;6.70;99.90;;;;;;4971635;28;20062;-80
2021/03/09 07:04:50;;;;;;;14.63;11.23;;;6.70;99.90;;;;;;4961951;28;20058;-80
2021/03/09 07:07:27;;;;;;;21.30;13.30;;;6.80;99.90;;;;;;4954012;28;20027;-80
2021/03/09 07:09:57;;;;;;;20.45;13.20;;;6.80;99.90;;;;;;4959710;28;20027;-79
2021/03/09 07:12:24;;;;;;;18.05;13.95;;;6.80;99.90;;;;;;4951226;28;20018;-79
2021/03/09 07:14:51;;;;;;;20.10;15.38;;;6.90;99.90;;;;;;4959853;28;20046;-80
2021/03/09 07:17:21;;;;;;;24.23;14.02;;;7.00;99.90;;;;;;4963357;28;20019;-79
2021/03/09 07:19:47;;;;;;;19.40;12.23;;;7.10;99.90;;;;;;4963019;28;20050;-79
2021/03/09 07:22:16;;;;;;;20.05;13.98;;;7.20;99.90;;;;;;4966916;28;20346;-79
2021/03/09 07:25:01;;;;;;;17.15;13.35;;;7.20;99.90;;;;;;4965146;28;20099;-80
2021/03/09 07:27:43;;;;;;;20.67;14.80;;;7.30;99.90;;;;;;4960076;28;20126;-79
2021/03/09 07:30:11;;;;;;;18.55;13.70;;;7.40;99.90;;;;;;4958299;28;20031;-79
2021/03/09 07:32:39;;;;;;;16.20;11.75;;;7.40;99.90;;;;;;4957099;28;20055;-80
2021/03/09 07:35:09;;;;;;;15.07;12.70;;;7.40;99.90;;;;;;4968823;28;20087;-79
2021/03/09 07:37:40;;;;;;;25.85;13.98;;;7.50;99.90;;;;;;4967775;28;20549;-79
2021/03/09 07:40:12;;;;;;;17.10;13.85;;;7.60;99.90;;;;;;4953014;28;20607;-79
2021/03/09 07:42:39;;;;;;;17.90;12.23;;;7.60;99.90;;;;;;4971353;28;20034;-80
2021/03/09 07:45:09;;;;;;;25.75;14.52;;;7.70;99.90;;;;;;4966532;28;20041;-80
2021/03/09 07:47:40;;;;;;;20.88;16.00;;;7.60;99.90;;;;;;4959346;28;20520;-79
2021/03/09 07:50:07;;;;;;;12.23;9.98;;;7.60;99.90;;;;;;4966091;28;20500;-79
2021/03/09 07:52:36;;;;;;;16.80;12.80;;;7.80;99.90;;;;;;4957959;28;20082;-81
2021/03/09 07:55:02;;;;;;;19.52;12.75;;;7.90;99.90;;;;;;4958426;28;20391;-78
2021/03/09 07:57:29;;;;;;;18.00;13.60;;;7.90;99.90;;;;;;4970790;28;20135;-80
2021/03/09 08:00:03;;;;;;;17.42;13.10;;;7.80;99.90;;;;;;4958046;28;20049;-81
2021/03/09 08:03:01;;;;;;;10.25;8.90;;;7.90;99.90;;;;;;4965298;28;20027;-80
2021/03/09 08:05:29;;;;;;;16.42;13.18;;;8.00;99.90;;;;;;4952139;28;20513;-81
2021/03/09 08:08:03;;;;;;;16.20;12.50;;;8.00;99.90;;;;;;4973102;28;20019;-79
2021/03/09 08:10:42;;;;;;;21.50;14.57;;;7.90;99.90;;;;;;4973108;28;20039;-79
2021/03/09 08:13:08;;;;;;;17.35;13.57;;;8.10;99.90;;;;;;4943081;29;20052;-80
2021/03/09 08:15:35;;;;;;;13.23;10.57;;;8.20;99.90;;;;;;4958554;28;20027;-81
2021/03/09 08:18:17;;;;;;;15.23;13.63;;;8.20;99.90;;;;;;4966072;28;20520;-80
2021/03/09 08:20:59;;;;;;;17.95;13.65;;;8.30;99.90;;;;;;4967597;28;20046;-79
2021/03/09 08:23:48;;;;;;;16.65;13.35;;;8.30;99.90;;;;;;4953325;28;20054;-79
2021/03/09 08:26:14;;;;;;;25.38;13.43;;;8.30;99.90;;;;;;4957255;28;20110;-80
2021/03/09 08:28:43;;;;;;;14.73;11.98;;;8.30;99.90;;;;;;4956427;28;20070;-80
2021/03/09 08:31:12;;;;;;;16.50;11.27;;;8.30;99.90;;;;;;4977514;28;20504;-74
2021/03/09 08:33:43;;;;;;;19.02;12.77;;;8.40;99.90;;;;;;4972209;28;20019;-74
2021/03/09 08:36:24;;;;;;;15.10;11.48;;;8.40;99.90;;;;;;4960603;28;20023;-74
2021/03/09 08:41:48;;;;;;;16.38;11.60;;;8.70;99.90;;;;;;4968033;28;20446;-74
2021/03/09 08:44:29;;;;;;;18.30;11.85;;;8.80;99.90;;;;;;4966955;28;20034;-74
2021/03/09 08:47:15;;;;;;;14.07;12.25;;;8.80;99.90;;;;;;4968218;28;20036;-74
2021/03/09 08:49:45;;;;;;;18.80;12.90;;;8.80;99.90;;;;;;4963898;28;20094;-74
2021/03/09 08:52:17;;;;;;;11.75;10.13;;;8.90;99.90;;;;;;4950983;28;20238;-74
2021/03/09 08:54:48;;;;;;;14.07;8.90;;;8.90;99.90;;;;;;4959660;28;20035;-74
2021/03/09 08:57:17;;;;;;;17.77;10.40;;;8.80;99.90;;;;;;4965876;28;20024;-74
2021/03/09 08:59:45;;;;;;;15.00;12.38;;;8.70;99.90;;;;;;4966975;28;20275;-74
2021/03/09 09:02:28;;;;;;;15.40;12.95;;;8.80;99.90;;;;;;4963351;28;20165;-74
2021/03/09 09:05:06;;;;;;;16.25;11.75;;;9.10;99.90;;;;;;4975212;28;20034;-75
2021/03/09 09:07:37;;;;;;;15.27;10.85;;;9.10;99.90;;;;;;4968735;28;20027;-75
2021/03/09 09:10:26;;;;;;;15.45;11.27;;;9.00;99.90;;;;;;4969524;28;20484;-75
2021/03/09 09:12:56;;;;;;;14.57;11.55;;;9.10;99.90;;;;;;4953979;28;20035;-71
2021/03/09 09:15:23;;;;;;;21.85;12.95;;;9.10;99.90;;;;;;4962186;28;20028;-71
2021/03/09 09:18:01;;;;;;;15.52;10.85;;;9.30;99.90;;;;;;4963166;28;20030;-71
2021/03/09 09:20:36;;;;;;;14.98;12.25;;;9.50;99.90;;;;;;4966025;28;20106;-72
2021/03/09 09:23:19;;;;;;;15.15;12.77;;;9.50;99.90;;;;;;4958363;28;20129;-75
2021/03/09 09:25:51;;;;;;;14.45;11.75;;;9.60;99.90;;;;;;4966553;28;20047;-75
2021/03/09 09:28:31;;;;;;;14.40;11.55;;;9.60;99.90;;;;;;4970534;28;20043;-75
2021/03/09 09:31:19;;;;;;;15.13;11.68;;;9.60;99.90;;;;;;4965800;28;20028;-73
2021/03/09 09:33:53;;;;;;;13.35;11.95;;;9.60;99.90;;;;;;4952726;28;20114;-74
2021/03/09 09:36:23;;;;;;;13.55;9.77;;;9.70;99.90;;;;;;4954774;28;20079;-74
2021/03/09 09:38:53;;;;;;;19.05;12.05;;;9.80;99.90;;;;;;4952235;28;20517;-75
2021/03/09 09:41:20;;;;;;;16.85;13.82;;;9.70;99.90;;;;;;4969098;28;20026;-74
2021/03/09 09:43:46;;;;;;;18.30;11.13;;;9.70;99.90;;;;;;4966432;28;20027;-73
2021/03/09 09:46:27;;;;;;;15.68;12.02;;;9.80;99.90;;;;;;4969813;28;20031;-74
2021/03/09 09:48:53;;;;;;;13.55;10.90;;;9.80;99.90;;;;;;4970468;28;20434;-74
2021/03/09 09:51:22;;;;;;;12.38;11.05;;;9.70;99.90;;;;;;4968439;28;20031;-75
2021/03/09 09:53:50;;;;;;;15.13;10.88;;;9.80;99.90;;;;;;4961506;28;20479;-74
2021/03/09 09:56:19;;;;;;;14.45;11.98;;;9.80;99.90;;;;;;4973757;28;20030;-74
2021/03/09 09:58:50;;;;;;;16.15;10.75;;;9.80;99.90;;;;;;4967019;28;20046;-74
2021/03/09 10:01:22;;;;;;;15.55;11.73;;;9.90;99.90;;;;;;4966181;28;20089;-74
2021/03/09 10:04:02;;;;;;;13.83;10.70;;;9.90;99.90;;;;;;4967728;28;20039;-75
2021/03/09 10:06:34;;;;;;;16.80;9.73;;;10.00;99.90;;;;;;4964876;28;20060;-75
2021/03/09 10:09:17;;;;;;;13.40;10.52;;;10.10;99.90;;;;;;4965042;28;20126;-75
2021/03/09 10:11:45;;;;;;;18.65;10.20;;;10.10;99.90;;;;;;4963238;28;20034;-73
2021/03/09 10:14:11;;;;;;;15.90;10.10;;;10.10;99.90;;;;;;4966092;28;20596;-75
2021/03/09 10:16:42;;;;;;;15.57;10.07;;;10.10;99.90;;;;;;4957258;28;20091;-72
2021/03/09 10:19:17;;;;;;;18.42;9.73;;;10.20;99.90;;;;;;4940790;29;20024;-73
2021/03/09 10:21:46;;;;;;;19.25;11.38;;;10.10;99.90;;;;;;4941085;29;20030;-74
2021/03/09 10:24:28;;;;;;;14.05;10.55;;;10.20;99.90;;;;;;4955223;29;20537;-74
2021/03/09 10:26:56;;;;;;;13.75;10.77;;;10.30;99.90;;;;;;4957370;28;20038;-75
2021/03/09 10:29:24;;;;;;;22.42;10.45;;;10.40;99.90;;;;;;4960881;28;20035;-75
2021/03/09 10:31:54;;;;;;;10.55;9.25;;;10.60;99.90;;;;;;4960501;28;20031;-74
2021/03/09 10:34:33;;;;;;;10.52;9.43;;;10.60;99.90;;;;;;4959574;28;20493;-74
2021/03/09 10:37:00;;;;;;;15.27;11.38;;;10.60;99.90;;;;;;4940119;29;20035;-74
2021/03/09 10:39:33;;;;;;;13.13;9.38;;;10.60;99.90;;;;;;4957756;28;20122;-75
2021/03/09 10:42:29;;;;;;;10.40;8.52;;;10.80;99.90;;;;;;4969179;28;20045;-74
2021/03/09 10:45:00;;;;;;;11.68;10.18;;;10.90;99.90;;;;;;4959817;28;20031;-74
2021/03/09 10:47:27;;;;;;;16.97;10.67;;;11.10;99.90;;;;;;4958341;29;20019;-74
2021/03/09 10:49:53;;;;;;;14.40;11.85;;;11.20;99.90;;;;;;4952004;29;20158;-74
2021/03/09 10:52:19;;;;;;;13.25;10.10;;;11.20;99.90;;;;;;4951153;29;20067;-73
2021/03/09 10:54:45;;;;;;;14.25;9.20;;;11.20;99.90;;;;;;4953130;29;20019;-74
2021/03/09 10:57:11;;;;;;;15.57;11.52;;;11.20;99.90;;;;;;4965261;28;20028;-74
2021/03/09 10:59:38;;;;;;;14.23;10.98;;;11.30;99.90;;;;;;4951263;28;20450;-75
2021/03/09 11:02:09;;;;;;;13.65;10.52;;;11.40;99.90;;;;;;4947531;28;20037;-75
2021/03/09 11:04:35;;;;;;;12.27;10.77;;;11.50;99.90;;;;;;4955059;28;20050;-74
2021/03/09 11:07:02;;;;;;;13.52;11.30;;;11.60;99.90;;;;;;4965814;29;20037;-74
2021/03/09 11:09:28;;;;;;;14.98;9.73;;;11.50;99.90;;;;;;4956172;29;20484;-74
2021/03/09 11:11:54;;;;;;;15.80;9.70;;;11.60;99.90;;;;;;4966136;28;20166;-74
2021/03/09 11:14:20;;;;;;;11.93;9.95;;;11.60;99.90;;;;;;4955753;28;20398;-74
2021/03/09 11:16:46;;;;;;;11.75;10.15;;;11.60;99.90;;;;;;4951505;28;20034;-74
2021/03/09 11:19:12;;;;;;;14.35;7.68;;;11.70;99.90;;;;;;4937518;29;20080;-74
2021/03/09 11:21:37;;;;;;;10.23;8.82;;;11.80;99.90;;;;;;4946400;28;20584;-74
2021/03/09 11:24:04;;;;;;;11.20;10.02;;;11.80;99.90;;;;;;4962692;28;20110;-76
2021/03/09 11:26:30;;;;;;;12.80;9.73;;;11.80;99.90;;;;;;4958002;28;20317;-75
2021/03/09 11:28:57;;;;;;;13.32;9.95;;;11.80;99.90;;;;;;4949113;29;20028;-75
2021/03/09 11:31:23;;;;;;;10.38;9.25;;;11.90;99.90;;;;;;4950902;29;20066;-75
2021/03/09 11:33:50;;;;;;;12.63;10.48;;;12.10;99.90;;;;;;4942520;28;20024;-75
2021/03/09 11:36:16;;;;;;;12.32;9.50;;;12.20;99.90;;;;;;4937076;29;20079;-75
2021/03/09 11:38:44;;;;;;;11.88;10.50;;;12.30;99.40;;;;;;4937732;28;20044;-75
2021/03/09 11:41:12;;;;;;;12.68;9.93;;;12.40;99.80;;;;;;4937017;29;20083;-75
2021/03/09 11:43:39;;;;;;;11.73;9.10;;;12.50;99.60;;;;;;4949511;29;20034;-75
2021/03/09 11:46:05;;;;;;;12.23;9.98;;;12.50;98.90;;;;;;4958831;28;20051;-75
2021/03/09 11:48:31;;;;;;;13.10;9.20;;;12.50;99.00;;;;;;4944013;29;20501;-75
2021/03/09 11:50:58;;;;;;;11.93;10.15;;;12.50;98.40;;;;;;4937470;29;20055;-75
2021/03/09 11:53:24;;;;;;;15.18;9.82;;;12.50;98.90;;;;;;4943844;29;20481;-75
2021/03/09 11:55:51;;;;;;;13.07;10.10;;;12.60;97.70;;;;;;4945591;28;20111;-75
2021/03/09 11:58:16;;;;;;;12.90;10.43;;;12.50;97.40;;;;;;4941893;29;20028;-74
2021/03/09 12:00:42;;;;;;;11.85;9.27;;;12.50;97.70;;;;;;4947451;29;20465;-74
2021/03/09 12:03:09;;;;;;;11.45;8.35;;;12.70;97.90;;;;;;4954236;28;20107;-75
2021/03/09 12:05:35;;;;;;;14.35;9.30;;;13.10;98.30;;;;;;4954726;29;20405;-75
2021/03/09 12:08:01;;;;;;;22.88;9.82;;;13.30;97.50;;;;;;4960415;28;20027;-75
2021/03/09 12:10:27;;;;;;;12.73;10.02;;;13.20;97.00;;;;;;4960742;28;20027;-75
2021/03/09 12:12:53;;;;;;;12.25;9.23;;;13.30;97.60;;;;;;4952810;28;20291;-75
2021/03/09 12:15:19;;;;;;;21.45;9.90;;;13.40;97.40;;;;;;4939966;29;20023;-76
2021/03/09 12:17:45;;;;;;;14.40;10.07;;;13.40;96.50;;;;;;4956709;28;20027;-76
2021/03/09 12:20:12;;;;;;;13.85;9.15;;;13.40;96.30;;;;;;4976365;28;20023;-75
2021/03/09 12:22:38;;;;;;;12.65;10.35;;;13.40;96.40;;;;;;4983492;28;20282;-76
2021/03/09 12:25:05;;;;;;;11.57;9.05;;;13.30;96.30;;;;;;4945034;29;20028;-75
2021/03/09 12:27:31;;;;;;;11.63;9.00;;;13.40;95.90;;;;;;4945518;29;20038;-75
2021/03/09 12:29:57;;;;;;;11.18;9.70;;;13.30;95.60;;;;;;4973333;28;20485;-75
2021/03/09 12:32:22;;;;;;;16.10;9.80;;;13.10;95.10;;;;;;4965319;28;20116;-75
2021/03/09 12:34:50;;;;;;;11.73;9.40;;;13.10;95.50;;;;;;4965258;29;20060;-76
2021/03/09 12:37:16;;;;;;;14.13;9.35;;;13.20;95.80;;;;;;4961779;28;20030;-77
2021/03/09 12:39:42;;;;;;;10.23;8.98;;;13.20;95.40;;;;;;4956034;29;20020;-77
2021/03/09 12:42:08;;;;;;;12.77;9.50;;;13.20;95.90;;;;;;4953123;29;20150;-77
2021/03/09 12:44:34;;;;;;;12.07;9.80;;;13.10;95.60;;;;;;4940309;29;20035;-78
2021/03/09 12:47:00;;;;;;;10.55;8.77;;;13.20;95.80;;;;;;4946227;29;20028;-77
2021/03/09 12:49:26;;;;;;;12.35;9.00;;;13.10;95.20;;;;;;4956983;29;20037;-77
2021/03/09 12:51:51;;;;;;;15.02;9.07;;;13.10;95.00;;;;;;4957672;29;20585;-77